Strona główna
METAR-TAF:

METAR-TAF

Lotnisko :

Emmen, Szwajcaria

Szerokość geograficzna: 47-05-32N, Długość geograficzna: 8-18-16E, wysokość: 426 m

Aktualna obserwacja pogody

Raport powstał 38 minut temu, godzina 17:20 UTC
Cisza
Temperatura 0°C
Wilgotność 100%
Ciśnienie 1017 hPa
Widzialność: 3100 m
słaby śnieg

METAR: LSME 271720Z AUTO 00000KT 3100NDV -SN NCD 00/M00 Q1017 RMK

czas: 18:58 (17:58 UTC)


TAF: brakujący

Obserwacja i prognoza pogody dla ponad 4000 lotnisk (raport METAR i TAF).

Dostępne stacje oznaczono żółtymi i czerwonymi punktami na mapie.

Najedź kursorem aby zobaczyć nazwę stacji.

Kliknij aby zobaczyć obserwacje i prognozy pogody.

Aby zmienić mapę: kliknij na zielony przycisk z czarnym krzyżykiem, aby powiększyć; na zielony przycisk z myślnikiem, aby pomniejszyć; na zielone strzałki, aby przejść do map sąsiednich.


METAR-TAF: